sensor_id;sensor_type;location;lat;lon;timestamp;noise_LAeq;noise_LA_min;noise_LA_max;noise_LA01;noise_LA95
36217;Laerm;22259;48.792;8.964;2023-03-04T00:00:41;46.42;41.84;59.49;;
36217;Laerm;22259;48.792;8.964;2023-03-04T00:03:10;44.91;41.66;51.31;;
36217;Laerm;22259;48.792;8.964;2023-03-04T00:05:36;44.85;42.44;52.42;;
36217;Laerm;22259;48.792;8.964;2023-03-04T00:08:02;44.95;42.01;50.02;;
36217;Laerm;22259;48.792;8.964;2023-03-04T00:10:27;44.31;41.91;49.40;;
36217;Laerm;22259;48.792;8.964;2023-03-04T00:12:53;44.74;41.94;51.24;;
36217;Laerm;22259;48.792;8.964;2023-03-04T00:15:18;52.12;42.26;68.40;;
36217;Laerm;22259;48.792;8.964;2023-03-04T00:17:43;51.86;43.33;69.37;;
36217;Laerm;22259;48.792;8.964;2023-03-04T00:20:10;44.92;41.81;51.44;;
36217;Laerm;22259;48.792;8.964;2023-03-04T00:22:36;45.41;42.29;52.98;;
36217;Laerm;22259;48.792;8.964;2023-03-04T00:25:01;45.12;42.11;52.25;;
36217;Laerm;22259;48.792;8.964;2023-03-04T00:27:26;46.14;41.40;54.99;;
36217;Laerm;22259;48.792;8.964;2023-03-04T00:29:52;46.62;42.64;57.85;;
36217;Laerm;22259;48.792;8.964;2023-03-04T00:32:17;46.17;42.03;54.33;;
36217;Laerm;22259;48.792;8.964;2023-03-04T00:34:43;46.71;41.51;56.68;;
36217;Laerm;22259;48.792;8.964;2023-03-04T00:37:08;44.11;40.71;51.93;;
36217;Laerm;22259;48.792;8.964;2023-03-04T00:39:33;46.99;41.38;56.82;;
36217;Laerm;22259;48.792;8.964;2023-03-04T00:41:59;46.44;41.57;57.34;;
36217;Laerm;22259;48.792;8.964;2023-03-04T00:44:24;46.19;42.49;56.41;;
36217;Laerm;22259;48.792;8.964;2023-03-04T00:46:49;45.34;42.16;52.92;;
36217;Laerm;22259;48.792;8.964;2023-03-04T00:49:15;49.71;41.70;63.71;;
36217;Laerm;22259;48.792;8.964;2023-03-04T00:51:40;46.39;39.95;53.91;;
36217;Laerm;22259;48.792;8.964;2023-03-04T00:54:06;45.60;40.50;54.70;;
36217;Laerm;22259;48.792;8.964;2023-03-04T00:56:31;46.23;42.52;54.87;;
36217;Laerm;22259;48.792;8.964;2023-03-04T00:58:56;44.63;41.66;48.07;;
36217;Laerm;22259;48.792;8.964;2023-03-04T01:01:22;43.99;40.53;50.28;;
36217;Laerm;22259;48.792;8.964;2023-03-04T01:03:47;44.42;41.73;49.63;;
36217;Laerm;22259;48.792;8.964;2023-03-04T01:06:13;44.39;41.64;47.61;;
36217;Laerm;22259;48.792;8.964;2023-03-04T01:08:38;45.39;41.72;56.35;;
36217;Laerm;22259;48.792;8.964;2023-03-04T01:11:04;44.71;42.21;48.78;;
36217;Laerm;22259;48.792;8.964;2023-03-04T01:13:29;45.16;41.10;55.28;;
36217;Laerm;22259;48.792;8.964;2023-03-04T01:15:55;52.88;41.55;69.76;;
36217;Laerm;22259;48.792;8.964;2023-03-04T01:18:21;44.42;41.20;52.86;;
36217;Laerm;22259;48.792;8.964;2023-03-04T01:20:47;45.07;41.73;52.30;;
36217;Laerm;22259;48.792;8.964;2023-03-04T01:23:12;44.84;41.08;50.38;;
36217;Laerm;22259;48.792;8.964;2023-03-04T01:25:37;44.16;41.00;48.16;;
36217;Laerm;22259;48.792;8.964;2023-03-04T01:28:03;67.19;41.72;80.92;;
36217;Laerm;22259;48.792;8.964;2023-03-04T01:30:28;44.71;41.44;54.80;;
36217;Laerm;22259;48.792;8.964;2023-03-04T01:32:54;44.90;39.92;54.75;;
36217;Laerm;22259;48.792;8.964;2023-03-04T01:35:19;44.37;41.12;54.35;;
36217;Laerm;22259;48.792;8.964;2023-03-04T01:37:44;44.84;40.67;56.44;;
36217;Laerm;22259;48.792;8.964;2023-03-04T01:40:10;44.98;41.55;56.25;;
36217;Laerm;22259;48.792;8.964;2023-03-04T01:42:37;45.65;42.71;52.99;;
36217;Laerm;22259;48.792;8.964;2023-03-04T01:45:03;45.08;41.93;50.28;;
36217;Laerm;22259;48.792;8.964;2023-03-04T01:47:30;44.10;41.42;47.70;;
36217;Laerm;22259;48.792;8.964;2023-03-04T01:49:56;50.55;41.40;68.58;;
36217;Laerm;22259;48.792;8.964;2023-03-04T01:52:21;44.36;41.42;49.94;;
36217;Laerm;22259;48.792;8.964;2023-03-04T01:54:47;44.37;41.57;47.60;;
36217;Laerm;22259;48.792;8.964;2023-03-04T01:57:16;44.94;42.32;48.37;;
36217;Laerm;22259;48.792;8.964;2023-03-04T01:59:42;45.25;41.71;54.18;;
36217;Laerm;22259;48.792;8.964;2023-03-04T02:02:08;44.84;42.01;50.09;;
36217;Laerm;22259;48.792;8.964;2023-03-04T02:04:33;44.26;41.55;48.76;;
36217;Laerm;22259;48.792;8.964;2023-03-04T02:06:59;45.48;41.84;54.41;;
36217;Laerm;22259;48.792;8.964;2023-03-04T02:09:24;44.08;40.50;50.10;;
36217;Laerm;22259;48.792;8.964;2023-03-04T02:11:50;43.78;40.31;49.70;;
36217;Laerm;22259;48.792;8.964;2023-03-04T02:14:16;44.60;40.11;54.57;;
36217;Laerm;22259;48.792;8.964;2023-03-04T02:16:42;52.80;40.73;69.00;;
36217;Laerm;22259;48.792;8.964;2023-03-04T02:24:33;44.44;40.73;51.56;;
36217;Laerm;22259;48.792;8.964;2023-03-04T02:27:00;44.87;41.77;52.63;;
36217;Laerm;22259;48.792;8.964;2023-03-04T02:29:25;44.72;42.21;53.15;;
36217;Laerm;22259;48.792;8.964;2023-03-04T02:31:52;44.24;41.22;51.04;;
36217;Laerm;22259;48.792;8.964;2023-03-04T02:34:19;44.51;41.98;50.08;;
36217;Laerm;22259;48.792;8.964;2023-03-04T02:36:45;44.75;42.21;49.90;;
36217;Laerm;22259;48.792;8.964;2023-03-04T02:39:13;44.70;41.75;49.62;;
36217;Laerm;22259;48.792;8.964;2023-03-04T02:41:39;44.69;41.72;56.03;;
36217;Laerm;22259;48.792;8.964;2023-03-04T02:44:09;44.06;40.50;48.36;;
36217;Laerm;22259;48.792;8.964;2023-03-04T02:46:39;43.88;40.87;51.08;;
36217;Laerm;22259;48.792;8.964;2023-03-04T02:49:04;45.11;40.95;51.50;;
36217;Laerm;22259;48.792;8.964;2023-03-04T02:51:30;44.63;41.06;51.99;;
36217;Laerm;22259;48.792;8.964;2023-03-04T02:53:55;50.64;41.48;64.55;;
36217;Laerm;22259;48.792;8.964;2023-03-04T02:56:20;44.07;41.16;48.63;;
36217;Laerm;22259;48.792;8.964;2023-03-04T02:58:46;44.30;41.42;48.66;;
36217;Laerm;22259;48.792;8.964;2023-03-04T03:01:11;44.61;41.79;50.72;;
36217;Laerm;22259;48.792;8.964;2023-03-04T03:03:37;44.96;41.68;51.50;;
36217;Laerm;22259;48.792;8.964;2023-03-04T03:06:02;45.23;41.00;57.91;;
36217;Laerm;22259;48.792;8.964;2023-03-04T03:08:27;45.60;41.82;54.93;;
36217;Laerm;22259;48.792;8.964;2023-03-04T03:10:53;45.08;41.63;53.22;;
36217;Laerm;22259;48.792;8.964;2023-03-04T03:13:18;44.65;41.86;49.56;;
36217;Laerm;22259;48.792;8.964;2023-03-04T03:15:44;50.60;42.37;66.51;;
36217;Laerm;22259;48.792;8.964;2023-03-04T03:18:09;44.07;41.20;47.23;;
36217;Laerm;22259;48.792;8.964;2023-03-04T03:20:35;44.53;41.72;47.66;;
36217;Laerm;22259;48.792;8.964;2023-03-04T03:23:00;44.07;41.18;49.39;;
36217;Laerm;22259;48.792;8.964;2023-03-04T03:25:26;43.93;40.62;51.28;;
36217;Laerm;22259;48.792;8.964;2023-03-04T03:27:51;43.74;40.03;48.04;;
36217;Laerm;22259;48.792;8.964;2023-03-04T03:30:17;43.71;40.48;50.11;;
36217;Laerm;22259;48.792;8.964;2023-03-04T03:32:42;43.79;41.08;51.43;;
36217;Laerm;22259;48.792;8.964;2023-03-04T03:35:08;43.94;41.18;47.97;;
36217;Laerm;22259;48.792;8.964;2023-03-04T03:37:33;43.76;41.20;47.94;;
36217;Laerm;22259;48.792;8.964;2023-03-04T03:39:59;44.09;40.64;49.64;;
36217;Laerm;22259;48.792;8.964;2023-03-04T03:42:24;43.68;41.10;46.15;;
36217;Laerm;22259;48.792;8.964;2023-03-04T03:44:50;44.28;41.82;46.91;;
36217;Laerm;22259;48.792;8.964;2023-03-04T03:47:15;44.18;41.89;46.70;;
36217;Laerm;22259;48.792;8.964;2023-03-04T03:49:40;50.50;41.96;65.36;;
36217;Laerm;22259;48.792;8.964;2023-03-04T03:52:06;44.68;42.33;48.60;;
36217;Laerm;22259;48.792;8.964;2023-03-04T03:54:32;58.71;40.93;72.84;;
36217;Laerm;22259;48.792;8.964;2023-03-04T03:56:58;45.72;42.06;56.82;;
36217;Laerm;22259;48.792;8.964;2023-03-04T03:59:23;50.83;41.70;67.93;;
36217;Laerm;22259;48.792;8.964;2023-03-04T04:01:48;44.41;41.72;49.88;;
36217;Laerm;22259;48.792;8.964;2023-03-04T04:04:14;44.80;41.68;50.15;;
36217;Laerm;22259;48.792;8.964;2023-03-04T04:06:39;45.50;42.30;54.37;;
36217;Laerm;22259;48.792;8.964;2023-03-04T04:09:05;44.39;42.03;56.97;;
36217;Laerm;22259;48.792;8.964;2023-03-04T04:11:30;44.16;41.63;48.12;;
36217;Laerm;22259;48.792;8.964;2023-03-04T04:13:55;44.25;41.89;48.63;;
36217;Laerm;22259;48.792;8.964;2023-03-04T04:16:21;50.50;42.50;66.89;;
36217;Laerm;22259;48.792;8.964;2023-03-04T04:18:46;44.22;42.22;50.97;;
36217;Laerm;22259;48.792;8.964;2023-03-04T04:21:11;58.50;42.14;72.52;;
36217;Laerm;22259;48.792;8.964;2023-03-04T04:23:37;44.42;41.84;49.57;;
36217;Laerm;22259;48.792;8.964;2023-03-04T04:26:03;43.80;41.06;45.94;;
36217;Laerm;22259;48.792;8.964;2023-03-04T04:28:28;44.54;42.38;48.80;;
36217;Laerm;22259;48.792;8.964;2023-03-04T04:30:54;44.32;41.99;47.19;;
36217;Laerm;22259;48.792;8.964;2023-03-04T04:33:19;43.68;41.08;45.75;;
36217;Laerm;22259;48.792;8.964;2023-03-04T04:35:44;43.64;40.89;47.49;;
36217;Laerm;22259;48.792;8.964;2023-03-04T04:38:10;44.00;41.68;48.03;;
36217;Laerm;22259;48.792;8.964;2023-03-04T04:40:35;43.99;41.46;48.03;;
36217;Laerm;22259;48.792;8.964;2023-03-04T04:43:01;44.18;41.28;50.26;;
36217;Laerm;22259;48.792;8.964;2023-03-04T04:45:26;54.04;42.56;74.88;;
36217;Laerm;22259;48.792;8.964;2023-03-04T04:47:52;44.89;42.09;50.63;;
36217;Laerm;22259;48.792;8.964;2023-03-04T04:50:18;48.60;42.92;62.30;;
36217;Laerm;22259;48.792;8.964;2023-03-04T04:52:43;44.81;42.53;52.76;;
36217;Laerm;22259;48.792;8.964;2023-03-04T04:55:09;45.26;42.85;55.17;;
36217;Laerm;22259;48.792;8.964;2023-03-04T04:57:35;45.27;42.96;49.69;;
36217;Laerm;22259;48.792;8.964;2023-03-04T05:00:00;45.73;43.00;50.75;;
36217;Laerm;22259;48.792;8.964;2023-03-04T05:02:26;54.50;43.26;74.98;;
36217;Laerm;22259;48.792;8.964;2023-03-04T05:04:51;47.50;43.38;58.06;;
36217;Laerm;22259;48.792;8.964;2023-03-04T05:07:17;48.07;42.79;60.78;;
36217;Laerm;22259;48.792;8.964;2023-03-04T05:09:42;46.56;43.15;54.42;;
36217;Laerm;22259;48.792;8.964;2023-03-04T05:12:07;46.12;43.51;50.87;;
36217;Laerm;22259;48.792;8.964;2023-03-04T05:14:33;53.19;43.69;74.45;;
36217;Laerm;22259;48.792;8.964;2023-03-04T05:16:58;53.55;42.93;75.47;;
36217;Laerm;22259;48.792;8.964;2023-03-04T05:19:24;49.38;42.83;65.41;;
36217;Laerm;22259;48.792;8.964;2023-03-04T05:21:49;44.91;42.81;48.74;;
36217;Laerm;22259;48.792;8.964;2023-03-04T05:24:14;44.68;41.64;48.00;;
36217;Laerm;22259;48.792;8.964;2023-03-04T05:26:40;43.97;41.68;48.40;;
36217;Laerm;22259;48.792;8.964;2023-03-04T05:29:05;43.87;41.36;47.10;;
36217;Laerm;22259;48.792;8.964;2023-03-04T05:31:31;45.19;41.88;52.47;;
36217;Laerm;22259;48.792;8.964;2023-03-04T05:33:56;49.07;42.69;64.79;;
36217;Laerm;22259;48.792;8.964;2023-03-04T05:36:22;45.53;42.79;52.96;;
36217;Laerm;22259;48.792;8.964;2023-03-04T05:38:47;45.74;43.21;52.53;;
36217;Laerm;22259;48.792;8.964;2023-03-04T05:41:12;45.92;42.82;63.96;;
36217;Laerm;22259;48.792;8.964;2023-03-04T05:43:38;47.41;43.05;63.99;;
36217;Laerm;22259;48.792;8.964;2023-03-04T05:46:07;50.90;42.93;66.46;;
36217;Laerm;22259;48.792;8.964;2023-03-04T05:48:32;47.97;42.46;60.83;;
36217;Laerm;22259;48.792;8.964;2023-03-04T05:50:58;47.50;42.47;64.45;;
36217;Laerm;22259;48.792;8.964;2023-03-04T05:53:24;48.66;42.56;70.02;;
36217;Laerm;22259;48.792;8.964;2023-03-04T05:55:49;45.86;43.31;58.23;;
36217;Laerm;22259;48.792;8.964;2023-03-04T05:58:15;45.10;42.97;57.87;;
36217;Laerm;22259;48.792;8.964;2023-03-04T06:00:41;45.69;43.39;54.48;;
36217;Laerm;22259;48.792;8.964;2023-03-04T06:03:07;45.43;43.09;54.47;;
36217;Laerm;22259;48.792;8.964;2023-03-04T06:05:37;49.77;42.53;70.66;;
36217;Laerm;22259;48.792;8.964;2023-03-04T06:08:03;46.02;43.57;64.22;;
36217;Laerm;22259;48.792;8.964;2023-03-04T06:10:28;46.13;43.17;66.01;;
36217;Laerm;22259;48.792;8.964;2023-03-04T06:12:53;46.37;43.82;59.92;;
36217;Laerm;22259;48.792;8.964;2023-03-04T06:15:19;55.78;43.99;73.28;;
36217;Laerm;22259;48.792;8.964;2023-03-04T06:17:44;51.11;43.47;70.00;;
36217;Laerm;22259;48.792;8.964;2023-03-04T06:20:10;45.39;42.74;51.24;;
36217;Laerm;22259;48.792;8.964;2023-03-04T06:22:35;44.54;41.99;61.66;;
36217;Laerm;22259;48.792;8.964;2023-03-04T06:25:01;45.00;42.50;57.95;;
36217;Laerm;22259;48.792;8.964;2023-03-04T06:27:26;44.93;42.65;58.40;;
36217;Laerm;22259;48.792;8.964;2023-03-04T06:29:52;46.31;42.72;62.84;;
36217;Laerm;22259;48.792;8.964;2023-03-04T06:32:17;46.10;42.62;58.08;;
36217;Laerm;22259;48.792;8.964;2023-03-04T06:34:43;45.27;42.61;51.09;;
36217;Laerm;22259;48.792;8.964;2023-03-04T06:37:08;45.42;42.97;59.13;;
36217;Laerm;22259;48.792;8.964;2023-03-04T06:39:34;44.51;42.18;47.20;;
36217;Laerm;22259;48.792;8.964;2023-03-04T06:41:59;44.71;42.75;56.37;;
36217;Laerm;22259;48.792;8.964;2023-03-04T06:44:24;49.72;42.59;68.29;;
36217;Laerm;22259;48.792;8.964;2023-03-04T06:46:50;55.71;42.21;71.99;;
36217;Laerm;22259;48.792;8.964;2023-03-04T06:49:15;44.38;41.70;62.54;;
36217;Laerm;22259;48.792;8.964;2023-03-04T06:51:40;47.06;42.94;63.82;;
36217;Laerm;22259;48.792;8.964;2023-03-04T06:54:06;45.10;42.66;59.06;;
36217;Laerm;22259;48.792;8.964;2023-03-04T06:56:31;44.22;42.13;57.43;;
36217;Laerm;22259;48.792;8.964;2023-03-04T06:58:57;44.15;42.68;46.21;;
36217;Laerm;22259;48.792;8.964;2023-03-04T07:01:23;50.78;42.69;68.12;;
36217;Laerm;22259;48.792;8.964;2023-03-04T07:03:51;44.25;41.68;56.77;;
36217;Laerm;22259;48.792;8.964;2023-03-04T07:06:17;44.01;42.19;52.86;;
36217;Laerm;22259;48.792;8.964;2023-03-04T07:08:43;60.95;41.53;79.57;;
36217;Laerm;22259;48.792;8.964;2023-03-04T07:11:09;44.26;41.72;57.58;;
36217;Laerm;22259;48.792;8.964;2023-03-04T07:13:34;43.48;41.40;53.53;;
36217;Laerm;22259;48.792;8.964;2023-03-04T07:16:09;55.36;41.77;71.31;;
36217;Laerm;22259;48.792;8.964;2023-03-04T07:18:35;42.54;38.85;58.68;;
36217;Laerm;22259;48.792;8.964;2023-03-04T07:21:00;44.45;39.61;60.27;;
36217;Laerm;22259;48.792;8.964;2023-03-04T07:23:26;49.51;39.05;69.61;;
36217;Laerm;22259;48.792;8.964;2023-03-04T07:25:51;42.98;39.05;55.37;;
36217;Laerm;22259;48.792;8.964;2023-03-04T07:28:17;42.11;39.31;50.86;;
36217;Laerm;22259;48.792;8.964;2023-03-04T07:30:42;54.93;39.15;71.01;;
36217;Laerm;22259;48.792;8.964;2023-03-04T07:33:08;42.35;39.12;56.94;;
36217;Laerm;22259;48.792;8.964;2023-03-04T07:35:33;45.97;39.02;63.64;;
36217;Laerm;22259;48.792;8.964;2023-03-04T07:37:59;51.83;40.60;62.75;;
36217;Laerm;22259;48.792;8.964;2023-03-04T07:40:24;50.90;41.75;64.48;;
36217;Laerm;22259;48.792;8.964;2023-03-04T07:42:50;56.24;42.24;66.81;;
36217;Laerm;22259;48.792;8.964;2023-03-04T07:45:16;55.21;39.55;69.78;;
36217;Laerm;22259;48.792;8.964;2023-03-04T07:47:41;53.25;38.88;71.50;;
36217;Laerm;22259;48.792;8.964;2023-03-04T07:50:07;44.26;41.02;66.47;;
36217;Laerm;22259;48.792;8.964;2023-03-04T07:52:36;43.77;41.30;57.13;;
36217;Laerm;22259;48.792;8.964;2023-03-04T07:55:02;43.75;41.63;58.24;;
36217;Laerm;22259;48.792;8.964;2023-03-04T07:57:27;43.78;41.48;60.06;;
36217;Laerm;22259;48.792;8.964;2023-03-04T07:59:53;51.05;41.38;69.07;;
36217;Laerm;22259;48.792;8.964;2023-03-04T08:02:18;50.89;41.91;67.28;;
36217;Laerm;22259;48.792;8.964;2023-03-04T08:04:43;54.62;39.34;75.77;;
36217;Laerm;22259;48.792;8.964;2023-03-04T08:07:09;41.86;39.25;52.42;;
36217;Laerm;22259;48.792;8.964;2023-03-04T08:09:34;43.79;39.21;56.47;;
36217;Laerm;22259;48.792;8.964;2023-03-04T08:12:00;43.63;39.34;62.90;;
36217;Laerm;22259;48.792;8.964;2023-03-04T08:14:25;43.39;39.15;58.52;;
36217;Laerm;22259;48.792;8.964;2023-03-04T08:16:50;54.90;39.58;69.07;;
36217;Laerm;22259;48.792;8.964;2023-03-04T08:19:16;43.15;40.57;63.93;;
36217;Laerm;22259;48.792;8.964;2023-03-04T08:21:41;44.12;41.20;62.23;;
36217;Laerm;22259;48.792;8.964;2023-03-04T08:24:06;44.33;42.21;53.26;;
36217;Laerm;22259;48.792;8.964;2023-03-04T08:26:34;46.36;42.38;62.35;;
36217;Laerm;22259;48.792;8.964;2023-03-04T08:29:00;44.62;41.93;54.49;;
36217;Laerm;22259;48.792;8.964;2023-03-04T08:31:26;52.90;42.44;68.77;;
36217;Laerm;22259;48.792;8.964;2023-03-04T08:33:52;50.60;42.82;67.07;;
36217;Laerm;22259;48.792;8.964;2023-03-04T08:36:17;44.59;42.52;57.41;;
36217;Laerm;22259;48.792;8.964;2023-03-04T08:38:42;44.87;42.74;58.10;;
36217;Laerm;22259;48.792;8.964;2023-03-04T08:41:08;44.84;42.78;56.79;;
36217;Laerm;22259;48.792;8.964;2023-03-04T08:43:33;44.41;42.14;50.13;;
36217;Laerm;22259;48.792;8.964;2023-03-04T08:45:58;55.00;42.69;68.75;;
36217;Laerm;22259;48.792;8.964;2023-03-04T08:48:24;44.75;42.53;50.79;;
36217;Laerm;22259;48.792;8.964;2023-03-04T08:50:49;46.07;40.48;54.98;;
36217;Laerm;22259;48.792;8.964;2023-03-04T08:53:15;46.50;44.05;61.52;;
36217;Laerm;22259;48.792;8.964;2023-03-04T08:55:41;46.29;44.01;59.75;;
36217;Laerm;22259;48.792;8.964;2023-03-04T08:58:07;45.95;42.64;52.78;;
36217;Laerm;22259;48.792;8.964;2023-03-04T09:00:33;52.70;42.62;67.76;;
36217;Laerm;22259;48.792;8.964;2023-03-04T09:02:59;45.09;42.55;51.73;;
36217;Laerm;22259;48.792;8.964;2023-03-04T09:05:24;50.69;42.47;64.88;;
36217;Laerm;22259;48.792;8.964;2023-03-04T09:07:49;44.65;42.90;49.92;;
36217;Laerm;22259;48.792;8.964;2023-03-04T09:10:15;45.64;42.82;59.96;;
36217;Laerm;22259;48.792;8.964;2023-03-04T09:12:40;44.31;40.80;56.22;;
36217;Laerm;22259;48.792;8.964;2023-03-04T09:15:06;53.68;40.57;68.80;;
36217;Laerm;22259;48.792;8.964;2023-03-04T09:17:31;50.62;40.41;67.05;;
36217;Laerm;22259;48.792;8.964;2023-03-04T09:19:57;44.77;40.43;55.43;;
36217;Laerm;22259;48.792;8.964;2023-03-04T09:22:22;55.91;40.97;70.37;;
36217;Laerm;22259;48.792;8.964;2023-03-04T09:24:48;44.38;39.75;59.00;;
36217;Laerm;22259;48.792;8.964;2023-03-04T09:27:13;43.87;40.08;59.39;;
36217;Laerm;22259;48.792;8.964;2023-03-04T09:29:38;44.46;40.53;68.06;;
36217;Laerm;22259;48.792;8.964;2023-03-04T09:32:04;53.80;39.31;67.55;;
36217;Laerm;22259;48.792;8.964;2023-03-04T09:34:29;44.67;40.50;58.53;;
36217;Laerm;22259;48.792;8.964;2023-03-04T09:36:55;45.50;40.21;58.37;;
36217;Laerm;22259;48.792;8.964;2023-03-04T09:39:20;43.81;40.11;56.36;;
36217;Laerm;22259;48.792;8.964;2023-03-04T09:41:47;44.04;40.53;64.87;;
36217;Laerm;22259;48.792;8.964;2023-03-04T09:44:23;43.75;39.25;64.53;;
36217;Laerm;22259;48.792;8.964;2023-03-04T09:46:50;54.79;39.73;69.40;;
36217;Laerm;22259;48.792;8.964;2023-03-04T09:49:16;46.92;40.46;61.12;;
36217;Laerm;22259;48.792;8.964;2023-03-04T10:01:00;47.88;39.15;67.84;;
36217;Laerm;22259;48.792;8.964;2023-03-04T10:03:31;49.83;40.78;65.41;;
36217;Laerm;22259;48.792;8.964;2023-03-04T10:05:59;43.33;39.89;55.99;;
36217;Laerm;22259;48.792;8.964;2023-03-04T10:08:37;42.80;39.64;56.32;;
36217;Laerm;22259;48.792;8.964;2023-03-04T10:11:05;42.48;39.49;51.48;;
36217;Laerm;22259;48.792;8.964;2023-03-04T10:13:34;43.42;39.34;62.35;;
36217;Laerm;22259;48.792;8.964;2023-03-04T10:16:03;54.46;39.55;68.08;;
36217;Laerm;22259;48.792;8.964;2023-03-04T10:18:31;43.66;40.36;57.24;;
36217;Laerm;22259;48.792;8.964;2023-03-04T10:21:41;44.17;40.50;57.35;;
36217;Laerm;22259;48.792;8.964;2023-03-04T10:24:11;43.64;40.11;61.14;;
36217;Laerm;22259;48.792;8.964;2023-03-04T10:26:37;46.18;40.16;63.72;;
36217;Laerm;22259;48.792;8.964;2023-03-04T10:29:03;49.50;40.50;71.22;;
36217;Laerm;22259;48.792;8.964;2023-03-04T10:31:35;51.79;40.57;67.88;;
36217;Laerm;22259;48.792;8.964;2023-03-04T10:34:02;53.04;40.89;68.88;;
36217;Laerm;22259;48.792;8.964;2023-03-04T10:36:39;44.62;41.10;60.86;;
36217;Laerm;22259;48.792;8.964;2023-03-04T10:39:09;62.75;40.53;77.59;;
36217;Laerm;22259;48.792;8.964;2023-03-04T10:41:35;44.10;40.64;55.48;;
36217;Laerm;22259;48.792;8.964;2023-03-04T10:44:11;45.33;39.75;57.95;;
36217;Laerm;22259;48.792;8.964;2023-03-04T10:46:43;52.57;40.82;67.30;;
36217;Laerm;22259;48.792;8.964;2023-03-04T10:49:10;50.28;40.53;66.62;;
36217;Laerm;22259;48.792;8.964;2023-03-04T10:51:42;44.39;40.16;58.87;;
36217;Laerm;22259;48.792;8.964;2023-03-04T10:54:09;43.35;40.31;59.03;;
36217;Laerm;22259;48.792;8.964;2023-03-04T10:56:41;42.82;40.55;51.23;;
36217;Laerm;22259;48.792;8.964;2023-03-04T10:59:32;43.53;39.15;68.28;;
36217;Laerm;22259;48.792;8.964;2023-03-04T11:02:17;52.83;40.36;69.25;;
36217;Laerm;22259;48.792;8.964;2023-03-04T11:04:48;49.51;39.81;65.05;;
36217;Laerm;22259;48.792;8.964;2023-03-04T11:07:14;43.11;39.70;56.11;;
36217;Laerm;22259;48.792;8.964;2023-03-04T11:09:39;45.49;39.92;72.18;;
36217;Laerm;22259;48.792;8.964;2023-03-04T11:12:09;44.15;40.43;65.53;;
36217;Laerm;22259;48.792;8.964;2023-03-04T11:14:37;52.01;40.48;67.73;;
36217;Laerm;22259;48.792;8.964;2023-03-04T11:21:22;49.48;40.03;69.79;;
36217;Laerm;22259;48.792;8.964;2023-03-04T11:29:55;43.13;39.73;57.37;;
36217;Laerm;22259;48.792;8.964;2023-03-04T11:32:39;42.80;40.03;54.63;;
36217;Laerm;22259;48.792;8.964;2023-03-04T11:35:14;54.17;40.97;69.35;;
36217;Laerm;22259;48.792;8.964;2023-03-04T11:37:46;43.27;40.71;58.43;;
36217;Laerm;22259;48.792;8.964;2023-03-04T11:40:38;42.91;39.21;60.86;;
36217;Laerm;22259;48.792;8.964;2023-03-04T11:43:10;42.79;39.40;56.16;;
36217;Laerm;22259;48.792;8.964;2023-03-04T11:45:58;52.40;39.61;68.00;;
36217;Laerm;22259;48.792;8.964;2023-03-04T11:48:34;42.74;39.84;55.64;;
36217;Laerm;22259;48.792;8.964;2023-03-04T11:51:25;49.70;40.28;65.72;;
36217;Laerm;22259;48.792;8.964;2023-03-04T11:54:07;42.85;39.68;49.43;;
36217;Laerm;22259;48.792;8.964;2023-03-04T11:56:44;42.67;39.37;50.90;;
36217;Laerm;22259;48.792;8.964;2023-03-04T11:59:16;43.13;40.26;60.71;;
36217;Laerm;22259;48.792;8.964;2023-03-04T12:09:39;43.37;39.89;56.78;;
36217;Laerm;22259;48.792;8.964;2023-03-04T12:27:37;43.11;40.13;51.88;;
36217;Laerm;22259;48.792;8.964;2023-03-04T12:30:19;51.96;39.89;67.84;;
36217;Laerm;22259;48.792;8.964;2023-03-04T12:32:55;48.57;40.00;64.09;;
36217;Laerm;22259;48.792;8.964;2023-03-04T12:40:42;43.04;39.81;54.85;;
36217;Laerm;22259;48.792;8.964;2023-03-04T12:43:18;42.67;39.70;59.02;;
36217;Laerm;22259;48.792;8.964;2023-03-04T12:45:51;52.57;39.67;69.33;;
36217;Laerm;22259;48.792;8.964;2023-03-04T12:48:31;53.05;40.36;68.13;;
36217;Laerm;22259;48.792;8.964;2023-03-04T12:57:05;44.80;39.97;62.73;;
36217;Laerm;22259;48.792;8.964;2023-03-04T12:59:34;44.85;40.67;59.59;;
36217;Laerm;22259;48.792;8.964;2023-03-04T13:15:36;53.13;40.53;69.39;;
36217;Laerm;22259;48.792;8.964;2023-03-04T13:18:03;54.69;41.12;67.56;;
36217;Laerm;22259;48.792;8.964;2023-03-04T13:20:33;52.59;40.78;66.31;;
36217;Laerm;22259;48.792;8.964;2023-03-04T13:26:29;44.35;40.31;62.18;;
36217;Laerm;22259;48.792;8.964;2023-03-04T13:34:46;48.86;39.87;64.45;;
36217;Laerm;22259;48.792;8.964;2023-03-04T13:37:25;42.66;39.70;48.36;;
36217;Laerm;22259;48.792;8.964;2023-03-04T13:40:22;42.79;40.46;54.81;;
36217;Laerm;22259;48.792;8.964;2023-03-04T13:42:48;44.10;40.16;59.24;;
36217;Laerm;22259;48.792;8.964;2023-03-04T13:47:57;46.95;42.01;58.36;;
36217;Laerm;22259;48.792;8.964;2023-03-04T13:50:28;44.49;40.38;53.10;;
36217;Laerm;22259;48.792;8.964;2023-03-04T13:52:54;48.43;41.82;62.02;;
36217;Laerm;22259;48.792;8.964;2023-03-04T13:55:36;46.34;41.42;61.08;;
36217;Laerm;22259;48.792;8.964;2023-03-04T13:58:22;44.96;41.79;53.21;;
36217;Laerm;22259;48.792;8.964;2023-03-04T14:00:51;49.77;41.36;67.34;;
36217;Laerm;22259;48.792;8.964;2023-03-04T14:03:19;51.51;40.96;66.71;;
36217;Laerm;22259;48.792;8.964;2023-03-04T14:05:45;51.19;40.64;67.21;;
36217;Laerm;22259;48.792;8.964;2023-03-04T14:08:17;43.89;40.67;61.78;;
36217;Laerm;22259;48.792;8.964;2023-03-04T14:10:43;43.26;40.21;48.33;;
36217;Laerm;22259;48.792;8.964;2023-03-04T14:13:08;43.32;40.67;48.99;;
36217;Laerm;22259;48.792;8.964;2023-03-04T14:15:34;43.43;40.69;48.93;;
36217;Laerm;22259;48.792;8.964;2023-03-04T14:18:01;50.29;39.95;65.50;;
36217;Laerm;22259;48.792;8.964;2023-03-04T14:23:27;43.47;40.33;50.77;;
36217;Laerm;22259;48.792;8.964;2023-03-04T14:26:02;43.96;41.06;53.88;;
36217;Laerm;22259;48.792;8.964;2023-03-04T14:28:27;43.84;40.43;55.97;;
36217;Laerm;22259;48.792;8.964;2023-03-04T14:30:54;51.93;40.71;67.32;;
36217;Laerm;22259;48.792;8.964;2023-03-04T14:33:21;43.23;40.50;54.92;;
36217;Laerm;22259;48.792;8.964;2023-03-04T14:35:48;52.80;40.28;67.41;;
36217;Laerm;22259;48.792;8.964;2023-03-04T14:38:18;43.13;40.03;57.15;;
36217;Laerm;22259;48.792;8.964;2023-03-04T14:40:46;43.75;40.67;50.48;;
36217;Laerm;22259;48.792;8.964;2023-03-04T14:43:14;43.16;40.33;51.96;;
36217;Laerm;22259;48.792;8.964;2023-03-04T14:45:41;54.46;40.53;68.40;;
36217;Laerm;22259;48.792;8.964;2023-03-04T14:48:07;51.37;41.18;68.02;;
36217;Laerm;22259;48.792;8.964;2023-03-04T14:50:33;43.61;40.85;55.44;;
36217;Laerm;22259;48.792;8.964;2023-03-04T14:56:28;45.34;41.04;68.38;;
36217;Laerm;22259;48.792;8.964;2023-03-04T14:58:56;43.41;40.95;50.44;;
36217;Laerm;22259;48.792;8.964;2023-03-04T15:01:28;53.50;41.26;69.96;;
36217;Laerm;22259;48.792;8.964;2023-03-04T15:06:48;45.26;41.32;57.79;;
36217;Laerm;22259;48.792;8.964;2023-03-04T15:09:17;50.74;41.22;69.35;;
36217;Laerm;22259;48.792;8.964;2023-03-04T15:11:46;43.94;41.65;53.26;;
36217;Laerm;22259;48.792;8.964;2023-03-04T15:14:56;43.43;40.46;60.47;;
36217;Laerm;22259;48.792;8.964;2023-03-04T15:17:24;51.23;40.91;69.01;;
36217;Laerm;22259;48.792;8.964;2023-03-04T15:25:49;49.40;40.13;67.89;;